Terminal Aerodrome Forecast
Issued by NWS

Home | Current Version | Previous Version | Text Only | Print | Product List | Glossary On
Versions: 1 2 3 4 5 6 7 8 9 10 11 12 13 14 15 16 17
000
FTUS43 KIND 190524
TAFBMG
TAF
KBMG 190524Z 1906/2006 22011KT P6SM SKC
     FM190900 22009KT P6SM SKC WS020/25035KT
     FM191500 22012KT P6SM SKC
     FM200100 20009KT P6SM FEW250 WS020/22040KT
      AMD LTD TO CLD VIS AND WIND TIL 191400=

USA.gov is the U.S. government's official web portal to all federal, state and local government web resources and services.